sensor_id;sensor_type;location;lat;lon;timestamp;pressure;altitude;pressure_sealevel;temperature;humidity
55755;BME280;41674;52.290;-1.474;2023-05-10T00:01:15;100506.86;;;11.92;91.56
55755;BME280;41674;52.290;-1.474;2023-05-10T00:03:44;100503.81;;;12.10;91.40
55755;BME280;41674;52.290;-1.474;2023-05-10T00:06:14;100507.64;;;11.15;94.63
55755;BME280;41674;52.290;-1.474;2023-05-10T00:08:43;100507.95;;;10.78;97.50
55755;BME280;41674;52.290;-1.474;2023-05-10T00:11:13;100507.03;;;11.08;94.79
55755;BME280;41674;52.290;-1.474;2023-05-10T00:13:42;100505.77;;;10.80;94.89
55755;BME280;41674;52.290;-1.474;2023-05-10T00:16:11;100503.59;;;12.21;91.68
55755;BME280;41674;52.290;-1.474;2023-05-10T00:18:41;100502.15;;;11.11;94.14
55755;BME280;41674;52.290;-1.474;2023-05-10T00:21:11;100502.68;;;11.50;92.35
55755;BME280;41674;52.290;-1.474;2023-05-10T00:23:40;100503.09;;;11.58;90.35
55755;BME280;41674;52.290;-1.474;2023-05-10T00:26:10;100499.25;;;12.22;87.89
55755;BME280;41674;52.290;-1.474;2023-05-10T00:28:44;100505.49;;;12.41;85.58
55755;BME280;41674;52.290;-1.474;2023-05-10T00:31:09;100505.33;;;12.78;83.13
55755;BME280;41674;52.290;-1.474;2023-05-10T00:33:39;100505.83;;;12.65;82.94
55755;BME280;41674;52.290;-1.474;2023-05-10T00:36:08;100508.86;;;12.97;81.67
55755;BME280;41674;52.290;-1.474;2023-05-10T00:38:37;100505.81;;;13.03;80.91
55755;BME280;41674;52.290;-1.474;2023-05-10T00:41:11;100510.27;;;12.90;80.60
55755;BME280;41674;52.290;-1.474;2023-05-10T00:43:35;100510.61;;;12.48;81.07
55755;BME280;41674;52.290;-1.474;2023-05-10T00:46:05;100511.17;;;12.66;80.42
55755;BME280;41674;52.290;-1.474;2023-05-10T00:48:35;100510.41;;;12.87;79.42
55755;BME280;41674;52.290;-1.474;2023-05-10T00:51:05;100505.50;;;12.57;79.23
55755;BME280;41674;52.290;-1.474;2023-05-10T00:53:34;100505.71;;;12.73;79.62
55755;BME280;41674;52.290;-1.474;2023-05-10T00:56:03;100506.44;;;12.82;79.53
55755;BME280;41674;52.290;-1.474;2023-05-10T00:58:32;100507.78;;;12.90;79.00
55755;BME280;41674;52.290;-1.474;2023-05-10T01:01:02;100505.44;;;12.69;79.10
55755;BME280;41674;52.290;-1.474;2023-05-10T01:03:32;100505.23;;;12.37;79.62
55755;BME280;41674;52.290;-1.474;2023-05-10T01:06:01;100509.91;;;12.78;77.88
55755;BME280;41674;52.290;-1.474;2023-05-10T01:08:30;100510.29;;;12.55;78.77
55755;BME280;41674;52.290;-1.474;2023-05-10T01:11:00;100506.22;;;12.28;79.78
55755;BME280;41674;52.290;-1.474;2023-05-10T01:13:32;100507.41;;;12.18;79.14
55755;BME280;41674;52.290;-1.474;2023-05-10T01:15:59;100506.91;;;12.41;78.56
55755;BME280;41674;52.290;-1.474;2023-05-10T01:18:29;100505.70;;;12.36;78.66
55755;BME280;41674;52.290;-1.474;2023-05-10T01:21:07;100504.72;;;12.37;78.86
55755;BME280;41674;52.290;-1.474;2023-05-10T01:23:41;100506.75;;;12.54;78.49
55755;BME280;41674;52.290;-1.474;2023-05-10T01:28:42;100506.80;;;12.65;78.77
55755;BME280;41674;52.290;-1.474;2023-05-10T01:31:10;100508.55;;;12.67;78.29
55755;BME280;41674;52.290;-1.474;2023-05-10T01:33:28;100504.88;;;12.61;78.75
55755;BME280;41674;52.290;-1.474;2023-05-10T01:36:02;100514.17;;;11.81;81.32
55755;BME280;41674;52.290;-1.474;2023-05-10T01:38:32;100512.23;;;11.90;82.48
55755;BME280;41674;52.290;-1.474;2023-05-10T01:41:01;100514.08;;;11.11;87.26
55755;BME280;41674;52.290;-1.474;2023-05-10T01:43:28;100516.41;;;10.56;91.14
55755;BME280;41674;52.290;-1.474;2023-05-10T01:46:00;100516.83;;;10.54;92.48
55755;BME280;41674;52.290;-1.474;2023-05-10T01:48:23;100515.75;;;10.58;92.75
55755;BME280;41674;52.290;-1.474;2023-05-10T01:50:53;100514.79;;;10.54;94.31
55755;BME280;41674;52.290;-1.474;2023-05-10T01:53:23;100515.05;;;10.86;92.67
55755;BME280;41674;52.290;-1.474;2023-05-10T01:55:53;100514.26;;;10.76;93.11
55755;BME280;41674;52.290;-1.474;2023-05-10T01:58:27;100513.65;;;10.98;92.06
55755;BME280;41674;52.290;-1.474;2023-05-10T02:00:52;100514.42;;;11.62;90.87
55755;BME280;41674;52.290;-1.474;2023-05-10T02:03:23;100515.53;;;11.14;91.20
55755;BME280;41674;52.290;-1.474;2023-05-10T02:05:49;100513.65;;;11.83;89.48
55755;BME280;41674;52.290;-1.474;2023-05-10T02:08:19;100513.81;;;11.11;90.24
55755;BME280;41674;52.290;-1.474;2023-05-10T02:10:51;100516.40;;;11.53;89.41
55755;BME280;41674;52.290;-1.474;2023-05-10T02:13:18;100511.67;;;11.71;88.02
55755;BME280;41674;52.290;-1.474;2023-05-10T02:15:49;100513.35;;;11.57;88.75
55755;BME280;41674;52.290;-1.474;2023-05-10T02:18:18;100512.55;;;11.48;87.81
55755;BME280;41674;52.290;-1.474;2023-05-10T02:20:47;100512.39;;;11.57;87.28
55755;BME280;41674;52.290;-1.474;2023-05-10T02:23:17;100515.78;;;11.81;86.32
55755;BME280;41674;52.290;-1.474;2023-05-10T02:25:47;100516.47;;;11.43;85.73
55755;BME280;41674;52.290;-1.474;2023-05-10T02:28:17;100521.17;;;11.66;86.34
55755;BME280;41674;52.290;-1.474;2023-05-10T02:30:45;100523.33;;;11.52;88.03
55755;BME280;41674;52.290;-1.474;2023-05-10T02:33:14;100522.83;;;11.06;88.68
55755;BME280;41674;52.290;-1.474;2023-05-10T02:35:44;100523.75;;;10.81;89.63
55755;BME280;41674;52.290;-1.474;2023-05-10T02:38:14;100522.48;;;10.87;88.34
55755;BME280;41674;52.290;-1.474;2023-05-10T02:40:44;100523.97;;;11.34;87.77
55755;BME280;41674;52.290;-1.474;2023-05-10T02:43:14;100526.20;;;11.46;87.41
55755;BME280;41674;52.290;-1.474;2023-05-10T02:45:43;100528.50;;;11.43;87.31
55755;BME280;41674;52.290;-1.474;2023-05-10T02:48:11;100533.80;;;10.46;90.79
55755;BME280;41674;52.290;-1.474;2023-05-10T02:50:44;100537.99;;;10.92;90.02
55755;BME280;41674;52.290;-1.474;2023-05-10T02:53:15;100536.32;;;10.42;89.36
55755;BME280;41674;52.290;-1.474;2023-05-10T02:55:41;100537.48;;;11.37;88.35
55755;BME280;41674;52.290;-1.474;2023-05-10T02:58:09;100538.67;;;11.24;87.65
55755;BME280;41674;52.290;-1.474;2023-05-10T03:00:39;100543.48;;;11.72;87.42
55755;BME280;41674;52.290;-1.474;2023-05-10T03:03:08;100544.96;;;11.49;87.34
55755;BME280;41674;52.290;-1.474;2023-05-10T03:05:37;100541.91;;;10.74;90.02
55755;BME280;41674;52.290;-1.474;2023-05-10T03:08:07;100540.61;;;10.53;90.46
55755;BME280;41674;52.290;-1.474;2023-05-10T03:10:44;100545.59;;;11.66;88.97
55755;BME280;41674;52.290;-1.474;2023-05-10T03:13:15;100541.64;;;11.41;88.99
55755;BME280;41674;52.290;-1.474;2023-05-10T03:15:45;100538.44;;;11.40;89.69
55755;BME280;41674;52.290;-1.474;2023-05-10T03:18:09;100536.40;;;10.77;90.81
55755;BME280;41674;52.290;-1.474;2023-05-10T03:20:37;100534.61;;;11.58;88.87
55755;BME280;41674;52.290;-1.474;2023-05-10T03:23:10;100533.61;;;11.66;88.32
55755;BME280;41674;52.290;-1.474;2023-05-10T03:25:33;100536.19;;;11.44;88.21
55755;BME280;41674;52.290;-1.474;2023-05-10T03:28:09;100535.73;;;11.36;88.16
55755;BME280;41674;52.290;-1.474;2023-05-10T03:30:33;100536.47;;;10.50;90.86
55755;BME280;41674;52.290;-1.474;2023-05-10T03:33:04;100534.15;;;10.24;92.32
55755;BME280;41674;52.290;-1.474;2023-05-10T03:35:31;100540.60;;;9.88;94.78
55755;BME280;41674;52.290;-1.474;2023-05-10T03:38:01;100532.32;;;10.69;91.58
55755;BME280;41674;52.290;-1.474;2023-05-10T03:40:30;100533.29;;;10.57;90.89
55755;BME280;41674;52.290;-1.474;2023-05-10T03:43:00;100535.61;;;9.86;92.51
55755;BME280;41674;52.290;-1.474;2023-05-10T03:45:29;100541.87;;;9.99;92.86
55755;BME280;41674;52.290;-1.474;2023-05-10T03:47:59;100545.55;;;9.92;94.23
55755;BME280;41674;52.290;-1.474;2023-05-10T03:50:28;100545.58;;;10.43;90.46
55755;BME280;41674;52.290;-1.474;2023-05-10T03:52:58;100553.06;;;10.01;92.37
55755;BME280;41674;52.290;-1.474;2023-05-10T03:55:27;100550.98;;;10.64;89.85
55755;BME280;41674;52.290;-1.474;2023-05-10T03:57:57;100548.95;;;11.01;88.42
55755;BME280;41674;52.290;-1.474;2023-05-10T04:00:26;100553.33;;;10.90;89.00
55755;BME280;41674;52.290;-1.474;2023-05-10T04:02:56;100556.87;;;11.14;87.59
55755;BME280;41674;52.290;-1.474;2023-05-10T04:05:25;100556.66;;;11.79;85.91
55755;BME280;41674;52.290;-1.474;2023-05-10T04:07:55;100556.01;;;11.61;84.71
55755;BME280;41674;52.290;-1.474;2023-05-10T04:10:24;100557.92;;;11.46;85.85
55755;BME280;41674;52.290;-1.474;2023-05-10T04:12:54;100563.22;;;11.62;83.65
55755;BME280;41674;52.290;-1.474;2023-05-10T04:15:23;100566.76;;;11.79;83.33
55755;BME280;41674;52.290;-1.474;2023-05-10T04:17:53;100567.80;;;11.92;82.41
55755;BME280;41674;52.290;-1.474;2023-05-10T04:20:23;100565.77;;;12.04;81.65
55755;BME280;41674;52.290;-1.474;2023-05-10T04:22:53;100566.59;;;12.16;81.62
55755;BME280;41674;52.290;-1.474;2023-05-10T04:25:22;100564.03;;;11.31;83.12
55755;BME280;41674;52.290;-1.474;2023-05-10T04:27:52;100564.29;;;11.64;81.88
55755;BME280;41674;52.290;-1.474;2023-05-10T04:30:21;100563.93;;;11.53;82.92
55755;BME280;41674;52.290;-1.474;2023-05-10T04:32:50;100563.09;;;11.12;82.42
55755;BME280;41674;52.290;-1.474;2023-05-10T04:35:20;100561.66;;;11.52;82.18
55755;BME280;41674;52.290;-1.474;2023-05-10T04:37:50;100562.33;;;11.39;82.13
55755;BME280;41674;52.290;-1.474;2023-05-10T04:40:19;100566.13;;;10.50;85.45
55755;BME280;41674;52.290;-1.474;2023-05-10T04:42:49;100571.79;;;9.78;87.01
55755;BME280;41674;52.290;-1.474;2023-05-10T04:45:19;100570.51;;;10.60;85.86
55755;BME280;41674;52.290;-1.474;2023-05-10T04:47:48;100572.21;;;10.68;85.37
55755;BME280;41674;52.290;-1.474;2023-05-10T04:50:18;100573.09;;;10.09;86.07
55755;BME280;41674;52.290;-1.474;2023-05-10T04:52:47;100572.84;;;10.75;84.63
55755;BME280;41674;52.290;-1.474;2023-05-10T04:55:17;100576.34;;;10.63;84.10
55755;BME280;41674;52.290;-1.474;2023-05-10T04:57:46;100572.15;;;10.53;84.17
55755;BME280;41674;52.290;-1.474;2023-05-10T05:00:16;100578.50;;;10.62;84.53
55755;BME280;41674;52.290;-1.474;2023-05-10T05:02:45;100583.15;;;10.60;83.31
55755;BME280;41674;52.290;-1.474;2023-05-10T05:05:19;100588.25;;;10.05;85.69
55755;BME280;41674;52.290;-1.474;2023-05-10T05:07:44;100591.68;;;10.31;86.82
55755;BME280;41674;52.290;-1.474;2023-05-10T05:10:14;100586.87;;;10.40;86.53
55755;BME280;41674;52.290;-1.474;2023-05-10T05:12:44;100594.86;;;9.45;86.22
55755;BME280;41674;52.290;-1.474;2023-05-10T05:15:13;100592.45;;;10.87;84.30
55755;BME280;41674;52.290;-1.474;2023-05-10T05:17:43;100591.23;;;11.01;84.24
55755;BME280;41674;52.290;-1.474;2023-05-10T05:20:12;100595.14;;;9.88;86.83
55755;BME280;41674;52.290;-1.474;2023-05-10T05:22:42;100597.74;;;9.96;88.13
55755;BME280;41674;52.290;-1.474;2023-05-10T05:25:11;100595.61;;;10.42;87.06
55755;BME280;41674;52.290;-1.474;2023-05-10T05:27:41;100595.68;;;10.83;86.35
55755;BME280;41674;52.290;-1.474;2023-05-10T05:30:11;100600.65;;;10.95;85.76
55755;BME280;41674;52.290;-1.474;2023-05-10T05:32:40;100605.87;;;10.26;87.63
55755;BME280;41674;52.290;-1.474;2023-05-10T05:35:10;100604.94;;;10.62;87.85
55755;BME280;41674;52.290;-1.474;2023-05-10T05:37:39;100603.77;;;10.69;87.34
55755;BME280;41674;52.290;-1.474;2023-05-10T05:40:12;100614.13;;;9.87;91.72
55755;BME280;41674;52.290;-1.474;2023-05-10T05:42:38;100618.87;;;9.91;92.14
55755;BME280;41674;52.290;-1.474;2023-05-10T05:45:09;100622.49;;;9.38;93.07
55755;BME280;41674;52.290;-1.474;2023-05-10T05:47:38;100620.45;;;9.26;95.56
55755;BME280;41674;52.290;-1.474;2023-05-10T05:50:08;100623.97;;;9.73;93.96
55755;BME280;41674;52.290;-1.474;2023-05-10T05:52:37;100624.26;;;9.45;94.12
55755;BME280;41674;52.290;-1.474;2023-05-10T05:55:07;100625.56;;;9.96;93.23
55755;BME280;41674;52.290;-1.474;2023-05-10T05:57:36;100619.20;;;10.59;92.79
55755;BME280;41674;52.290;-1.474;2023-05-10T06:00:07;100622.26;;;10.21;91.59
55755;BME280;41674;52.290;-1.474;2023-05-10T06:02:35;100626.94;;;10.08;93.07
55755;BME280;41674;52.290;-1.474;2023-05-10T06:05:06;100627.83;;;10.40;91.28
55755;BME280;41674;52.290;-1.474;2023-05-10T06:07:34;100632.10;;;10.07;92.34
55755;BME280;41674;52.290;-1.474;2023-05-10T06:10:05;100633.32;;;10.27;93.88
55755;BME280;41674;52.290;-1.474;2023-05-10T06:12:34;100636.14;;;10.27;91.69
55755;BME280;41674;52.290;-1.474;2023-05-10T06:15:04;100639.62;;;10.30;92.54
55755;BME280;41674;52.290;-1.474;2023-05-10T06:17:33;100642.00;;;9.91;94.00
55755;BME280;41674;52.290;-1.474;2023-05-10T06:20:03;100639.73;;;10.07;92.69
55755;BME280;41674;52.290;-1.474;2023-05-10T06:22:31;100640.98;;;10.47;94.46
55755;BME280;41674;52.290;-1.474;2023-05-10T06:25:01;100640.55;;;9.99;93.39
55755;BME280;41674;52.290;-1.474;2023-05-10T06:27:31;100635.60;;;10.92;92.44
55755;BME280;41674;52.290;-1.474;2023-05-10T06:30:00;100638.52;;;10.93;91.34
55755;BME280;41674;52.290;-1.474;2023-05-10T06:32:30;100644.81;;;10.46;92.07
55755;BME280;41674;52.290;-1.474;2023-05-10T06:35:00;100647.06;;;10.31;94.07
55755;BME280;41674;52.290;-1.474;2023-05-10T06:37:29;100650.42;;;10.39;94.94
55755;BME280;41674;52.290;-1.474;2023-05-10T06:39:59;100651.91;;;10.10;96.40
55755;BME280;41674;52.290;-1.474;2023-05-10T06:42:28;100654.37;;;10.22;96.52
55755;BME280;41674;52.290;-1.474;2023-05-10T06:44:58;100654.14;;;10.35;96.37
55755;BME280;41674;52.290;-1.474;2023-05-10T06:47:27;100660.86;;;10.01;97.22
55755;BME280;41674;52.290;-1.474;2023-05-10T06:49:57;100663.96;;;10.02;97.64
55755;BME280;41674;52.290;-1.474;2023-05-10T06:52:26;100662.23;;;10.46;98.00
55755;BME280;41674;52.290;-1.474;2023-05-10T06:54:56;100654.27;;;11.16;95.35
55755;BME280;41674;52.290;-1.474;2023-05-10T06:57:26;100656.97;;;10.97;95.81
55755;BME280;41674;52.290;-1.474;2023-05-10T06:59:55;100655.62;;;10.61;94.68
55755;BME280;41674;52.290;-1.474;2023-05-10T07:02:25;100655.79;;;11.51;93.08
55755;BME280;41674;52.290;-1.474;2023-05-10T07:04:54;100656.76;;;11.73;90.82
55755;BME280;41674;52.290;-1.474;2023-05-10T07:07:24;100660.57;;;10.18;93.76
55755;BME280;41674;52.290;-1.474;2023-05-10T07:09:54;100648.75;;;10.85;95.21
55755;BME280;41674;52.290;-1.474;2023-05-10T07:12:23;100646.08;;;10.85;93.82
55755;BME280;41674;52.290;-1.474;2023-05-10T07:14:53;100649.52;;;11.62;92.84
55755;BME280;41674;52.290;-1.474;2023-05-10T07:17:22;100655.91;;;10.66;95.74
55755;BME280;41674;52.290;-1.474;2023-05-10T07:19:52;100661.15;;;10.57;96.89
55755;BME280;41674;52.290;-1.474;2023-05-10T07:22:21;100659.71;;;10.91;95.59
55755;BME280;41674;52.290;-1.474;2023-05-10T07:24:51;100660.73;;;10.91;96.75
55755;BME280;41674;52.290;-1.474;2023-05-10T07:27:20;100658.54;;;10.97;95.53
55755;BME280;41674;52.290;-1.474;2023-05-10T07:29:50;100658.53;;;10.50;96.71
55755;BME280;41674;52.290;-1.474;2023-05-10T07:32:20;100663.01;;;10.70;96.57
55755;BME280;41674;52.290;-1.474;2023-05-10T07:34:49;100657.96;;;10.99;96.10
55755;BME280;41674;52.290;-1.474;2023-05-10T07:37:18;100657.40;;;10.61;93.84
55755;BME280;41674;52.290;-1.474;2023-05-10T07:39:48;100660.63;;;11.30;91.22
55755;BME280;41674;52.290;-1.474;2023-05-10T07:42:17;100660.67;;;12.26;89.33
55755;BME280;41674;52.290;-1.474;2023-05-10T07:44:47;100664.04;;;11.82;88.51
55755;BME280;41674;52.290;-1.474;2023-05-10T07:47:16;100658.74;;;12.26;89.58
55755;BME280;41674;52.290;-1.474;2023-05-10T07:49:46;100661.99;;;11.81;88.68
55755;BME280;41674;52.290;-1.474;2023-05-10T07:52:15;100665.42;;;11.60;89.23
55755;BME280;41674;52.290;-1.474;2023-05-10T07:54:45;100659.18;;;12.04;88.45
55755;BME280;41674;52.290;-1.474;2023-05-10T07:57:15;100657.75;;;11.56;89.90
55755;BME280;41674;52.290;-1.474;2023-05-10T07:59:44;100657.95;;;12.03;88.79
55755;BME280;41674;52.290;-1.474;2023-05-10T08:02:13;100653.34;;;12.25;85.24
55755;BME280;41674;52.290;-1.474;2023-05-10T08:04:43;100653.15;;;12.38;84.22
55755;BME280;41674;52.290;-1.474;2023-05-10T08:07:13;100655.79;;;11.90;86.69
55755;BME280;41674;52.290;-1.474;2023-05-10T08:09:42;100654.70;;;12.91;88.96
55755;BME280;41674;52.290;-1.474;2023-05-10T08:12:12;100657.05;;;12.78;86.63
55755;BME280;41674;52.290;-1.474;2023-05-10T08:14:42;100662.30;;;12.33;86.87
55755;BME280;41674;52.290;-1.474;2023-05-10T08:17:11;100659.01;;;13.18;86.21
55755;BME280;41674;52.290;-1.474;2023-05-10T08:19:40;100663.79;;;12.44;87.57
55755;BME280;41674;52.290;-1.474;2023-05-10T08:22:10;100663.47;;;12.67;87.93
55755;BME280;41674;52.290;-1.474;2023-05-10T08:24:40;100664.12;;;13.24;86.64
55755;BME280;41674;52.290;-1.474;2023-05-10T08:27:09;100668.98;;;12.88;86.73
55755;BME280;41674;52.290;-1.474;2023-05-10T08:29:39;100669.11;;;12.93;83.27
55755;BME280;41674;52.290;-1.474;2023-05-10T08:32:08;100672.43;;;12.71;84.38
55755;BME280;41674;52.290;-1.474;2023-05-10T08:34:38;100673.44;;;12.37;85.44
55755;BME280;41674;52.290;-1.474;2023-05-10T08:37:07;100670.22;;;12.74;85.09
55755;BME280;41674;52.290;-1.474;2023-05-10T08:39:37;100667.90;;;12.79;85.65
55755;BME280;41674;52.290;-1.474;2023-05-10T08:42:06;100673.04;;;12.75;86.96
55755;BME280;41674;52.290;-1.474;2023-05-10T08:44:36;100669.08;;;13.25;82.73
55755;BME280;41674;52.290;-1.474;2023-05-10T08:47:06;100670.75;;;13.01;81.69
55755;BME280;41674;52.290;-1.474;2023-05-10T08:49:35;100666.04;;;13.89;80.76
55755;BME280;41674;52.290;-1.474;2023-05-10T08:52:06;100671.12;;;13.53;80.54
55755;BME280;41674;52.290;-1.474;2023-05-10T08:54:34;100674.29;;;13.22;83.19
55755;BME280;41674;52.290;-1.474;2023-05-10T08:57:04;100675.80;;;12.57;85.95
55755;BME280;41674;52.290;-1.474;2023-05-10T08:59:33;100677.50;;;13.17;83.19
55755;BME280;41674;52.290;-1.474;2023-05-10T09:02:04;100669.27;;;13.91;82.74
55755;BME280;41674;52.290;-1.474;2023-05-10T09:04:32;100673.46;;;12.86;83.58
55755;BME280;41674;52.290;-1.474;2023-05-10T09:07:02;100670.68;;;13.70;82.59
55755;BME280;41674;52.290;-1.474;2023-05-10T09:09:31;100670.37;;;13.14;82.05
55755;BME280;41674;52.290;-1.474;2023-05-10T09:12:01;100670.12;;;13.35;81.74
55755;BME280;41674;52.290;-1.474;2023-05-10T09:14:31;100671.91;;;13.69;81.69
55755;BME280;41674;52.290;-1.474;2023-05-10T09:17:00;100673.69;;;13.31;84.30
55755;BME280;41674;52.290;-1.474;2023-05-10T09:19:29;100670.43;;;13.57;81.89
55755;BME280;41674;52.290;-1.474;2023-05-10T09:21:59;100669.10;;;13.29;80.82
55755;BME280;41674;52.290;-1.474;2023-05-10T09:24:30;100671.86;;;13.26;82.16
55755;BME280;41674;52.290;-1.474;2023-05-10T09:26:59;100673.81;;;13.64;80.30
55755;BME280;41674;52.290;-1.474;2023-05-10T09:31:57;100683.60;;;13.33;79.31
55755;BME280;41674;52.290;-1.474;2023-05-10T09:34:29;100691.12;;;13.04;82.93
55755;BME280;41674;52.290;-1.474;2023-05-10T09:36:57;100692.01;;;11.90;87.87
55755;BME280;41674;52.290;-1.474;2023-05-10T09:39:31;100690.70;;;12.84;84.63
55755;BME280;41674;52.290;-1.474;2023-05-10T09:41:55;100688.70;;;13.31;82.10
55755;BME280;41674;52.290;-1.474;2023-05-10T09:44:26;100690.41;;;13.37;80.50
55755;BME280;41674;52.290;-1.474;2023-05-10T09:46:54;100693.49;;;13.15;84.89
55755;BME280;41674;52.290;-1.474;2023-05-10T09:49:24;100695.14;;;12.91;84.50
55755;BME280;41674;52.290;-1.474;2023-05-10T09:52:03;100693.55;;;12.88;84.14
55755;BME280;41674;52.290;-1.474;2023-05-10T09:54:22;100692.04;;;13.95;82.24
55755;BME280;41674;52.290;-1.474;2023-05-10T09:56:52;100692.46;;;12.90;84.98
55755;BME280;41674;52.290;-1.474;2023-05-10T09:59:22;100689.44;;;13.68;84.66
55755;BME280;41674;52.290;-1.474;2023-05-10T10:01:52;100688.60;;;13.86;81.86
55755;BME280;41674;52.290;-1.474;2023-05-10T10:04:21;100687.33;;;13.26;80.53
55755;BME280;41674;52.290;-1.474;2023-05-10T10:06:59;100687.06;;;13.84;81.64
55755;BME280;41674;52.290;-1.474;2023-05-10T10:09:20;100685.46;;;14.18;79.03
55755;BME280;41674;52.290;-1.474;2023-05-10T10:11:49;100686.38;;;14.43;77.22
55755;BME280;41674;52.290;-1.474;2023-05-10T10:14:19;100691.43;;;14.14;77.39
55755;BME280;41674;52.290;-1.474;2023-05-10T10:16:49;100684.90;;;13.88;77.32
55755;BME280;41674;52.290;-1.474;2023-05-10T10:19:18;100680.03;;;13.77;81.57
55755;BME280;41674;52.290;-1.474;2023-05-10T10:21:48;100686.50;;;14.46;77.89
55755;BME280;41674;52.290;-1.474;2023-05-10T10:24:17;100686.82;;;14.19;76.21
55755;BME280;41674;52.290;-1.474;2023-05-10T10:26:47;100686.53;;;13.88;81.06
55755;BME280;41674;52.290;-1.474;2023-05-10T10:29:23;100688.66;;;14.24;77.69
55755;BME280;41674;52.290;-1.474;2023-05-10T10:31:48;100680.89;;;14.89;73.27
55755;BME280;41674;52.290;-1.474;2023-05-10T10:34:25;100681.09;;;14.38;77.10
55755;BME280;41674;52.290;-1.474;2023-05-10T10:36:46;100679.76;;;14.27;77.67
55755;BME280;41674;52.290;-1.474;2023-05-10T10:39:14;100677.48;;;14.79;73.67
55755;BME280;41674;52.290;-1.474;2023-05-10T10:41:49;100675.37;;;14.45;74.48
55755;BME280;41674;52.290;-1.474;2023-05-10T10:46:58;100673.87;;;15.04;74.48
55755;BME280;41674;52.290;-1.474;2023-05-10T10:49:15;100665.52;;;14.59;71.78
55755;BME280;41674;52.290;-1.474;2023-05-10T10:54:12;100662.34;;;15.20;71.73
55755;BME280;41674;52.290;-1.474;2023-05-10T10:56:41;100671.31;;;14.20;75.21
55755;BME280;41674;52.290;-1.474;2023-05-10T10:59:10;100663.32;;;14.92;74.77
55755;BME280;41674;52.290;-1.474;2023-05-10T11:01:41;100661.05;;;14.50;77.77
55755;BME280;41674;52.290;-1.474;2023-05-10T11:04:18;100655.00;;;15.19;77.52
55755;BME280;41674;52.290;-1.474;2023-05-10T11:06:39;100646.63;;;15.43;76.76
55755;BME280;41674;52.290;-1.474;2023-05-10T11:09:10;100649.91;;;15.62;74.03
55755;BME280;41674;52.290;-1.474;2023-05-10T11:11:49;100645.78;;;15.46;70.61
55755;BME280;41674;52.290;-1.474;2023-05-10T11:14:07;100654.48;;;14.37;72.94
55755;BME280;41674;52.290;-1.474;2023-05-10T11:16:41;100646.65;;;15.39;70.18
55755;BME280;41674;52.290;-1.474;2023-05-10T11:19:09;100640.73;;;15.87;72.54
55755;BME280;41674;52.290;-1.474;2023-05-10T11:21:45;100646.00;;;15.39;69.22
55755;BME280;41674;52.290;-1.474;2023-05-10T11:24:13;100642.66;;;16.24;69.01
55755;BME280;41674;52.290;-1.474;2023-05-10T11:26:35;100638.69;;;16.19;67.72
55755;BME280;41674;52.290;-1.474;2023-05-10T11:29:04;100638.99;;;16.43;64.45
55755;BME280;41674;52.290;-1.474;2023-05-10T11:31:34;100638.26;;;16.52;63.92
55755;BME280;41674;52.290;-1.474;2023-05-10T11:34:03;100631.18;;;16.79;64.21
55755;BME280;41674;52.290;-1.474;2023-05-10T11:36:35;100634.29;;;16.77;64.54
55755;BME280;41674;52.290;-1.474;2023-05-10T11:39:03;100636.60;;;16.16;67.71
55755;BME280;41674;52.290;-1.474;2023-05-10T11:41:32;100633.47;;;16.59;65.81
55755;BME280;41674;52.290;-1.474;2023-05-10T11:44:02;100637.06;;;16.37;67.09
55755;BME280;41674;52.290;-1.474;2023-05-10T11:46:31;100641.55;;;15.56;69.63
55755;BME280;41674;52.290;-1.474;2023-05-10T11:49:01;100637.96;;;16.17;68.49
55755;BME280;41674;52.290;-1.474;2023-05-10T11:51:33;100637.19;;;16.68;68.91
55755;BME280;41674;52.290;-1.474;2023-05-10T11:53:59;100631.53;;;16.35;69.37
55755;BME280;41674;52.290;-1.474;2023-05-10T11:56:29;100624.51;;;16.10;66.96
55755;BME280;41674;52.290;-1.474;2023-05-10T11:58:59;100621.52;;;17.33;62.91
55755;BME280;41674;52.290;-1.474;2023-05-10T12:01:28;100624.44;;;16.63;63.51
55755;BME280;41674;52.290;-1.474;2023-05-10T12:03:58;100617.60;;;16.47;65.72
55755;BME280;41674;52.290;-1.474;2023-05-10T12:06:29;100618.80;;;17.58;64.76
55755;BME280;41674;52.290;-1.474;2023-05-10T12:08:57;100621.84;;;16.30;66.18
55755;BME280;41674;52.290;-1.474;2023-05-10T12:11:27;100618.17;;;16.20;64.49
55755;BME280;41674;52.290;-1.474;2023-05-10T12:13:56;100621.17;;;16.25;66.19
55755;BME280;41674;52.290;-1.474;2023-05-10T12:16:28;100615.37;;;16.60;67.71
55755;BME280;41674;52.290;-1.474;2023-05-10T12:18:56;100615.10;;;16.33;67.85
55755;BME280;41674;52.290;-1.474;2023-05-10T12:21:24;100610.36;;;16.72;65.75
55755;BME280;41674;52.290;-1.474;2023-05-10T12:23:58;100613.43;;;16.50;68.52
55755;BME280;41674;52.290;-1.474;2023-05-10T12:26:25;100613.16;;;16.83;67.36
55755;BME280;41674;52.290;-1.474;2023-05-10T12:28:53;100616.41;;;16.41;66.02
55755;BME280;41674;52.290;-1.474;2023-05-10T12:31:22;100612.61;;;16.69;68.04
55755;BME280;41674;52.290;-1.474;2023-05-10T12:33:51;100611.41;;;16.28;67.74
55755;BME280;41674;52.290;-1.474;2023-05-10T12:36:23;100616.46;;;15.99;69.46
55755;BME280;41674;52.290;-1.474;2023-05-10T12:38:51;100617.18;;;16.07;65.06
55755;BME280;41674;52.290;-1.474;2023-05-10T12:41:20;100624.11;;;16.09;66.98
55755;BME280;41674;52.290;-1.474;2023-05-10T12:43:50;100627.51;;;15.51;69.29
55755;BME280;41674;52.290;-1.474;2023-05-10T12:46:19;100625.77;;;14.70;70.58
55755;BME280;41674;52.290;-1.474;2023-05-10T12:48:49;100618.44;;;15.06;77.35
55755;BME280;41674;52.290;-1.474;2023-05-10T12:51:18;100623.53;;;14.30;75.21
55755;BME280;41674;52.290;-1.474;2023-05-10T12:53:48;100616.12;;;16.49;74.36
55755;BME280;41674;52.290;-1.474;2023-05-10T12:56:17;100608.80;;;17.74;72.73
55755;BME280;41674;52.290;-1.474;2023-05-10T12:58:47;100612.12;;;17.49;69.89
55755;BME280;41674;52.290;-1.474;2023-05-10T13:01:16;100607.13;;;18.41;62.52